sensor_id;sensor_type;location;lat;lon;timestamp;temperature;humidity
56336;DHT22;42241;53.510;10.170;2023-03-01T00:01:42;0.50;99.90
56336;DHT22;42241;53.510;10.170;2023-03-01T00:04:07;0.50;99.90
56336;DHT22;42241;53.510;10.170;2023-03-01T00:06:33;0.40;99.90
56336;DHT22;42241;53.510;10.170;2023-03-01T00:09:01;0.40;99.90
56336;DHT22;42241;53.510;10.170;2023-03-01T00:11:27;0.40;99.90
56336;DHT22;42241;53.510;10.170;2023-03-01T00:13:54;0.50;99.90
56336;DHT22;42241;53.510;10.170;2023-03-01T00:16:25;0.40;99.90
56336;DHT22;42241;53.510;10.170;2023-03-01T00:18:50;0.40;99.90
56336;DHT22;42241;53.510;10.170;2023-03-01T00:21:16;0.30;99.90
56336;DHT22;42241;53.510;10.170;2023-03-01T00:23:42;0.20;99.90
56336;DHT22;42241;53.510;10.170;2023-03-01T00:26:11;0.10;99.90
56336;DHT22;42241;53.510;10.170;2023-03-01T00:28:37;0.10;99.90
56336;DHT22;42241;53.510;10.170;2023-03-01T00:31:03;0.10;99.90
56336;DHT22;42241;53.510;10.170;2023-03-01T00:33:31;0.10;99.90
56336;DHT22;42241;53.510;10.170;2023-03-01T00:35:58;0.10;99.90
56336;DHT22;42241;53.510;10.170;2023-03-01T00:38:26;0.10;99.90
56336;DHT22;42241;53.510;10.170;2023-03-01T00:40:57;0.10;99.90
56336;DHT22;42241;53.510;10.170;2023-03-01T00:43:27;0.00;99.90
56336;DHT22;42241;53.510;10.170;2023-03-01T00:45:53;0.00;99.90
56336;DHT22;42241;53.510;10.170;2023-03-01T00:48:21;-0.10;99.90
56336;DHT22;42241;53.510;10.170;2023-03-01T00:50:46;-0.10;99.90
56336;DHT22;42241;53.510;10.170;2023-03-01T00:53:12;-0.10;99.90
56336;DHT22;42241;53.510;10.170;2023-03-01T00:55:39;-0.10;99.90
56336;DHT22;42241;53.510;10.170;2023-03-01T00:58:04;-0.10;99.90
56336;DHT22;42241;53.510;10.170;2023-03-01T01:00:32;-0.10;99.90
56336;DHT22;42241;53.510;10.170;2023-03-01T01:02:57;-0.10;99.90
56336;DHT22;42241;53.510;10.170;2023-03-01T01:05:25;0.00;99.90
56336;DHT22;42241;53.510;10.170;2023-03-01T01:07:53;-0.10;99.90
56336;DHT22;42241;53.510;10.170;2023-03-01T01:10:19;-0.10;99.90
56336;DHT22;42241;53.510;10.170;2023-03-01T01:12:46;-0.10;99.90
56336;DHT22;42241;53.510;10.170;2023-03-01T01:15:16;0.00;99.90
56336;DHT22;42241;53.510;10.170;2023-03-01T01:17:42;-0.10;99.90
56336;DHT22;42241;53.510;10.170;2023-03-01T01:20:10;-0.10;99.90
56336;DHT22;42241;53.510;10.170;2023-03-01T01:22:35;-0.20;99.90
56336;DHT22;42241;53.510;10.170;2023-03-01T01:25:01;-0.30;99.90
56336;DHT22;42241;53.510;10.170;2023-03-01T01:27:26;-0.20;99.90
56336;DHT22;42241;53.510;10.170;2023-03-01T01:29:54;-0.30;99.90
56336;DHT22;42241;53.510;10.170;2023-03-01T01:32:20;-0.30;99.90
56336;DHT22;42241;53.510;10.170;2023-03-01T01:34:45;-0.30;99.90
56336;DHT22;42241;53.510;10.170;2023-03-01T01:37:13;-0.40;99.90
56336;DHT22;42241;53.510;10.170;2023-03-01T01:39:38;-0.30;99.90
56336;DHT22;42241;53.510;10.170;2023-03-01T01:42:04;-0.50;99.90
56336;DHT22;42241;53.510;10.170;2023-03-01T01:44:33;-0.30;99.90
56336;DHT22;42241;53.510;10.170;2023-03-01T01:47:03;-0.20;99.90
56336;DHT22;42241;53.510;10.170;2023-03-01T01:52:36;-0.40;99.90
56336;DHT22;42241;53.510;10.170;2023-03-01T01:55:12;-0.40;99.90
56336;DHT22;42241;53.510;10.170;2023-03-01T01:57:45;-0.40;99.90
56336;DHT22;42241;53.510;10.170;2023-03-01T02:00:14;-0.40;99.90
56336;DHT22;42241;53.510;10.170;2023-03-01T02:02:40;-0.40;99.90
56336;DHT22;42241;53.510;10.170;2023-03-01T02:05:09;-0.30;99.90
56336;DHT22;42241;53.510;10.170;2023-03-01T02:07:36;-0.30;99.90
56336;DHT22;42241;53.510;10.170;2023-03-01T02:10:06;-0.30;99.90
56336;DHT22;42241;53.510;10.170;2023-03-01T02:12:32;-0.30;99.90
56336;DHT22;42241;53.510;10.170;2023-03-01T02:14:58;-0.50;99.90
56336;DHT22;42241;53.510;10.170;2023-03-01T02:17:24;-0.40;99.90
56336;DHT22;42241;53.510;10.170;2023-03-01T02:22:20;-0.40;99.90
56336;DHT22;42241;53.510;10.170;2023-03-01T02:27:25;-0.30;99.90
56336;DHT22;42241;53.510;10.170;2023-03-01T02:29:55;-0.30;99.90
56336;DHT22;42241;53.510;10.170;2023-03-01T02:32:22;-0.20;99.90
56336;DHT22;42241;53.510;10.170;2023-03-01T02:34:53;-0.20;99.90
56336;DHT22;42241;53.510;10.170;2023-03-01T02:37:23;-0.30;99.90
56336;DHT22;42241;53.510;10.170;2023-03-01T02:39:55;-0.30;99.90
56336;DHT22;42241;53.510;10.170;2023-03-01T02:42:26;-0.30;99.90
56336;DHT22;42241;53.510;10.170;2023-03-01T02:44:51;-0.20;99.90
56336;DHT22;42241;53.510;10.170;2023-03-01T02:47:17;-0.10;99.90
56336;DHT22;42241;53.510;10.170;2023-03-01T02:49:42;-0.10;99.90
56336;DHT22;42241;53.510;10.170;2023-03-01T02:52:13;0.00;99.90
56336;DHT22;42241;53.510;10.170;2023-03-01T02:54:44;0.10;99.90
56336;DHT22;42241;53.510;10.170;2023-03-01T02:57:11;0.10;99.90
56336;DHT22;42241;53.510;10.170;2023-03-01T02:59:37;0.00;99.90
56336;DHT22;42241;53.510;10.170;2023-03-01T03:02:16;0.00;99.90
56336;DHT22;42241;53.510;10.170;2023-03-01T03:04:46;0.10;99.90
56336;DHT22;42241;53.510;10.170;2023-03-01T03:07:11;0.10;99.90
56336;DHT22;42241;53.510;10.170;2023-03-01T03:09:37;0.20;99.90
56336;DHT22;42241;53.510;10.170;2023-03-01T03:12:05;0.20;99.90
56336;DHT22;42241;53.510;10.170;2023-03-01T03:14:33;0.30;99.90
56336;DHT22;42241;53.510;10.170;2023-03-01T03:17:03;0.30;99.90
56336;DHT22;42241;53.510;10.170;2023-03-01T03:19:31;0.30;99.90
56336;DHT22;42241;53.510;10.170;2023-03-01T03:21:57;0.40;99.90
56336;DHT22;42241;53.510;10.170;2023-03-01T03:24:22;0.40;99.90
56336;DHT22;42241;53.510;10.170;2023-03-01T03:26:48;0.40;99.90
56336;DHT22;42241;53.510;10.170;2023-03-01T03:29:13;0.50;99.90
56336;DHT22;42241;53.510;10.170;2023-03-01T03:31:39;0.50;99.90
56336;DHT22;42241;53.510;10.170;2023-03-01T03:34:04;0.50;99.90
56336;DHT22;42241;53.510;10.170;2023-03-01T03:36:32;0.50;99.90
56336;DHT22;42241;53.510;10.170;2023-03-01T03:38:58;0.60;99.90
56336;DHT22;42241;53.510;10.170;2023-03-01T03:41:26;0.60;99.90
56336;DHT22;42241;53.510;10.170;2023-03-01T03:43:54;0.60;99.90
56336;DHT22;42241;53.510;10.170;2023-03-01T03:46:22;0.70;99.90
56336;DHT22;42241;53.510;10.170;2023-03-01T03:48:47;0.70;99.90
56336;DHT22;42241;53.510;10.170;2023-03-01T03:51:15;0.70;99.90
56336;DHT22;42241;53.510;10.170;2023-03-01T03:53:44;0.80;99.90
56336;DHT22;42241;53.510;10.170;2023-03-01T03:56:09;0.90;99.90
56336;DHT22;42241;53.510;10.170;2023-03-01T03:58:37;0.90;99.90
56336;DHT22;42241;53.510;10.170;2023-03-01T04:01:05;0.90;99.90
56336;DHT22;42241;53.510;10.170;2023-03-01T04:03:31;0.90;99.90
56336;DHT22;42241;53.510;10.170;2023-03-01T04:05:57;0.90;99.90
56336;DHT22;42241;53.510;10.170;2023-03-01T04:08:26;0.90;99.90
56336;DHT22;42241;53.510;10.170;2023-03-01T04:10:52;0.80;99.90
56336;DHT22;42241;53.510;10.170;2023-03-01T04:13:22;0.80;99.90
56336;DHT22;42241;53.510;10.170;2023-03-01T04:15:51;0.80;99.90
56336;DHT22;42241;53.510;10.170;2023-03-01T04:18:20;0.80;99.90
56336;DHT22;42241;53.510;10.170;2023-03-01T04:20:52;0.80;99.90
56336;DHT22;42241;53.510;10.170;2023-03-01T04:23:23;0.70;99.90
56336;DHT22;42241;53.510;10.170;2023-03-01T04:25:58;0.80;99.90
56336;DHT22;42241;53.510;10.170;2023-03-01T04:28:25;0.80;99.90
56336;DHT22;42241;53.510;10.170;2023-03-01T04:30:52;0.80;99.90
56336;DHT22;42241;53.510;10.170;2023-03-01T04:33:20;0.90;99.90
56336;DHT22;42241;53.510;10.170;2023-03-01T04:35:47;0.90;99.90
56336;DHT22;42241;53.510;10.170;2023-03-01T04:38:15;1.00;99.90
56336;DHT22;42241;53.510;10.170;2023-03-01T04:40:40;1.00;99.90
56336;DHT22;42241;53.510;10.170;2023-03-01T04:43:08;1.00;99.90
56336;DHT22;42241;53.510;10.170;2023-03-01T04:45:33;1.00;99.90
56336;DHT22;42241;53.510;10.170;2023-03-01T04:48:02;1.00;99.90
56336;DHT22;42241;53.510;10.170;2023-03-01T04:50:28;1.10;99.90
56336;DHT22;42241;53.510;10.170;2023-03-01T04:52:53;1.20;99.90
56336;DHT22;42241;53.510;10.170;2023-03-01T04:55:19;1.20;99.90
56336;DHT22;42241;53.510;10.170;2023-03-01T04:57:47;1.20;99.90
56336;DHT22;42241;53.510;10.170;2023-03-01T05:00:14;1.30;99.90
56336;DHT22;42241;53.510;10.170;2023-03-01T05:02:59;1.30;99.90
56336;DHT22;42241;53.510;10.170;2023-03-01T05:07:53;1.30;99.90
56336;DHT22;42241;53.510;10.170;2023-03-01T05:10:18;1.40;99.90
56336;DHT22;42241;53.510;10.170;2023-03-01T05:12:46;1.40;99.90
56336;DHT22;42241;53.510;10.170;2023-03-01T05:15:12;1.40;99.90
56336;DHT22;42241;53.510;10.170;2023-03-01T05:17:40;1.40;99.90
56336;DHT22;42241;53.510;10.170;2023-03-01T05:20:05;1.40;99.90
56336;DHT22;42241;53.510;10.170;2023-03-01T05:22:34;1.50;99.90
56336;DHT22;42241;53.510;10.170;2023-03-01T05:25:02;1.50;99.90
56336;DHT22;42241;53.510;10.170;2023-03-01T05:27:30;1.50;99.90
56336;DHT22;42241;53.510;10.170;2023-03-01T05:29:56;1.50;99.90
56336;DHT22;42241;53.510;10.170;2023-03-01T05:32:24;1.60;99.90
56336;DHT22;42241;53.510;10.170;2023-03-01T05:34:52;1.60;99.90
56336;DHT22;42241;53.510;10.170;2023-03-01T05:37:17;1.60;99.90
56336;DHT22;42241;53.510;10.170;2023-03-01T05:39:43;1.70;99.90
56336;DHT22;42241;53.510;10.170;2023-03-01T05:42:11;1.70;99.90
56336;DHT22;42241;53.510;10.170;2023-03-01T05:44:39;1.70;99.90
56336;DHT22;42241;53.510;10.170;2023-03-01T05:47:04;1.70;99.90
56336;DHT22;42241;53.510;10.170;2023-03-01T05:49:30;1.80;99.90
56336;DHT22;42241;53.510;10.170;2023-03-01T05:51:58;1.80;99.90
56336;DHT22;42241;53.510;10.170;2023-03-01T05:54:23;1.80;99.90
56336;DHT22;42241;53.510;10.170;2023-03-01T05:56:51;1.80;99.90
56336;DHT22;42241;53.510;10.170;2023-03-01T05:59:17;1.80;99.90
56336;DHT22;42241;53.510;10.170;2023-03-01T06:01:43;1.80;99.90
56336;DHT22;42241;53.510;10.170;2023-03-01T06:04:13;1.80;99.90
56336;DHT22;42241;53.510;10.170;2023-03-01T06:06:39;1.80;99.90
56336;DHT22;42241;53.510;10.170;2023-03-01T06:09:07;1.80;99.90
56336;DHT22;42241;53.510;10.170;2023-03-01T06:11:35;1.70;99.90
56336;DHT22;42241;53.510;10.170;2023-03-01T06:14:00;1.40;99.90
56336;DHT22;42241;53.510;10.170;2023-03-01T06:16:26;1.20;99.90
56336;DHT22;42241;53.510;10.170;2023-03-01T06:18:51;1.20;99.90
56336;DHT22;42241;53.510;10.170;2023-03-01T06:21:17;1.10;99.90
56336;DHT22;42241;53.510;10.170;2023-03-01T06:23:45;1.00;99.90
56336;DHT22;42241;53.510;10.170;2023-03-01T06:26:13;1.00;99.90
56336;DHT22;42241;53.510;10.170;2023-03-01T06:28:41;1.00;99.90
56336;DHT22;42241;53.510;10.170;2023-03-01T06:31:09;1.00;99.90
56336;DHT22;42241;53.510;10.170;2023-03-01T06:33:35;1.00;99.90
56336;DHT22;42241;53.510;10.170;2023-03-01T06:36:03;0.90;99.90
56336;DHT22;42241;53.510;10.170;2023-03-01T06:38:31;0.90;99.90
56336;DHT22;42241;53.510;10.170;2023-03-01T06:40:59;1.10;99.90
56336;DHT22;42241;53.510;10.170;2023-03-01T06:43:27;1.20;99.90
56336;DHT22;42241;53.510;10.170;2023-03-01T06:45:52;1.20;99.90
56336;DHT22;42241;53.510;10.170;2023-03-01T06:48:18;1.30;99.90
56336;DHT22;42241;53.510;10.170;2023-03-01T06:50:46;1.40;99.90
56336;DHT22;42241;53.510;10.170;2023-03-01T06:53:11;1.40;99.90
56336;DHT22;42241;53.510;10.170;2023-03-01T06:55:39;1.50;99.90
56336;DHT22;42241;53.510;10.170;2023-03-01T06:58:05;1.60;99.90
56336;DHT22;42241;53.510;10.170;2023-03-01T07:00:30;1.70;99.90
56336;DHT22;42241;53.510;10.170;2023-03-01T07:02:58;1.80;99.90
56336;DHT22;42241;53.510;10.170;2023-03-01T07:05:26;1.90;99.90
56336;DHT22;42241;53.510;10.170;2023-03-01T07:07:52;1.90;99.90
56336;DHT22;42241;53.510;10.170;2023-03-01T07:10:18;1.90;99.90
56336;DHT22;42241;53.510;10.170;2023-03-01T07:12:44;2.00;99.90
56336;DHT22;42241;53.510;10.170;2023-03-01T07:15:11;2.00;99.90
56336;DHT22;42241;53.510;10.170;2023-03-01T07:17:37;2.10;99.90
56336;DHT22;42241;53.510;10.170;2023-03-01T07:20:03;2.30;99.90
56336;DHT22;42241;53.510;10.170;2023-03-01T07:22:30;2.30;99.90
56336;DHT22;42241;53.510;10.170;2023-03-01T07:24:56;2.40;99.90
56336;DHT22;42241;53.510;10.170;2023-03-01T07:27:27;2.60;99.90
56336;DHT22;42241;53.510;10.170;2023-03-01T07:29:54;2.70;99.90
56336;DHT22;42241;53.510;10.170;2023-03-01T07:32:20;2.80;99.90
56336;DHT22;42241;53.510;10.170;2023-03-01T07:34:48;2.90;99.90
56336;DHT22;42241;53.510;10.170;2023-03-01T07:37:13;3.00;99.90
56336;DHT22;42241;53.510;10.170;2023-03-01T07:39:39;3.00;99.90
56336;DHT22;42241;53.510;10.170;2023-03-01T07:42:05;3.10;99.90
56336;DHT22;42241;53.510;10.170;2023-03-01T07:44:33;3.20;99.90
56336;DHT22;42241;53.510;10.170;2023-03-01T07:47:00;3.30;99.90
56336;DHT22;42241;53.510;10.170;2023-03-01T07:49:30;3.30;99.90
56336;DHT22;42241;53.510;10.170;2023-03-01T07:51:56;3.30;99.90
56336;DHT22;42241;53.510;10.170;2023-03-01T07:54:21;3.10;99.90
56336;DHT22;42241;53.510;10.170;2023-03-01T07:56:47;2.90;99.90
56336;DHT22;42241;53.510;10.170;2023-03-01T07:59:13;2.60;99.90
56336;DHT22;42241;53.510;10.170;2023-03-01T08:01:40;2.40;99.90
56336;DHT22;42241;53.510;10.170;2023-03-01T08:04:08;2.60;99.90
56336;DHT22;42241;53.510;10.170;2023-03-01T08:06:38;2.80;99.90
56336;DHT22;42241;53.510;10.170;2023-03-01T08:09:06;2.90;99.90
56336;DHT22;42241;53.510;10.170;2023-03-01T08:11:33;2.90;99.90
56336;DHT22;42241;53.510;10.170;2023-03-01T08:14:00;3.00;99.90
56336;DHT22;42241;53.510;10.170;2023-03-01T08:16:26;3.10;99.90
56336;DHT22;42241;53.510;10.170;2023-03-01T08:18:54;3.20;99.90
56336;DHT22;42241;53.510;10.170;2023-03-01T08:21:21;3.20;99.90
56336;DHT22;42241;53.510;10.170;2023-03-01T08:23:49;3.20;99.90
56336;DHT22;42241;53.510;10.170;2023-03-01T08:26:16;3.00;99.90
56336;DHT22;42241;53.510;10.170;2023-03-01T08:28:43;3.10;99.90
56336;DHT22;42241;53.510;10.170;2023-03-01T08:31:17;3.20;99.90
56336;DHT22;42241;53.510;10.170;2023-03-01T08:33:43;3.40;99.90
56336;DHT22;42241;53.510;10.170;2023-03-01T08:36:16;3.70;99.90
56336;DHT22;42241;53.510;10.170;2023-03-01T08:38:41;4.00;99.90
56336;DHT22;42241;53.510;10.170;2023-03-01T08:41:09;4.20;99.90
56336;DHT22;42241;53.510;10.170;2023-03-01T08:43:34;4.60;99.90
56336;DHT22;42241;53.510;10.170;2023-03-01T08:46:00;4.60;99.90
56336;DHT22;42241;53.510;10.170;2023-03-01T08:48:27;4.60;99.90
56336;DHT22;42241;53.510;10.170;2023-03-01T08:50:53;4.70;99.90
56336;DHT22;42241;53.510;10.170;2023-03-01T08:53:21;4.60;99.90
56336;DHT22;42241;53.510;10.170;2023-03-01T08:55:46;4.80;99.90
56336;DHT22;42241;53.510;10.170;2023-03-01T08:58:12;4.60;99.90
56336;DHT22;42241;53.510;10.170;2023-03-01T09:00:37;4.50;99.90
56336;DHT22;42241;53.510;10.170;2023-03-01T09:03:05;4.70;99.90
56336;DHT22;42241;53.510;10.170;2023-03-01T09:05:31;4.80;99.90
56336;DHT22;42241;53.510;10.170;2023-03-01T09:07:57;5.10;99.90
56336;DHT22;42241;53.510;10.170;2023-03-01T09:10:25;5.30;99.90
56336;DHT22;42241;53.510;10.170;2023-03-01T09:12:51;5.50;99.90
56336;DHT22;42241;53.510;10.170;2023-03-01T09:15:16;5.50;99.90
56336;DHT22;42241;53.510;10.170;2023-03-01T09:17:44;5.70;99.90
56336;DHT22;42241;53.510;10.170;2023-03-01T09:20:12;5.80;99.90
56336;DHT22;42241;53.510;10.170;2023-03-01T09:22:42;6.10;99.90
56336;DHT22;42241;53.510;10.170;2023-03-01T09:25:07;6.20;99.90
56336;DHT22;42241;53.510;10.170;2023-03-01T09:27:33;6.60;99.90
56336;DHT22;42241;53.510;10.170;2023-03-01T09:30:01;6.80;99.90
56336;DHT22;42241;53.510;10.170;2023-03-01T09:32:27;7.20;99.90
56336;DHT22;42241;53.510;10.170;2023-03-01T09:34:52;8.10;99.90
56336;DHT22;42241;53.510;10.170;2023-03-01T09:37:30;9.20;99.90
56336;DHT22;42241;53.510;10.170;2023-03-01T09:39:55;9.90;99.90
56336;DHT22;42241;53.510;10.170;2023-03-01T09:42:21;10.20;99.90
56336;DHT22;42241;53.510;10.170;2023-03-01T09:44:59;10.80;99.90
56336;DHT22;42241;53.510;10.170;2023-03-01T09:47:28;11.70;99.90
56336;DHT22;42241;53.510;10.170;2023-03-01T09:50:28;12.40;99.90
56336;DHT22;42241;53.510;10.170;2023-03-01T09:53:01;12.60;99.90
56336;DHT22;42241;53.510;10.170;2023-03-01T09:55:36;13.20;99.90
56336;DHT22;42241;53.510;10.170;2023-03-01T09:58:21;14.00;99.90
56336;DHT22;42241;53.510;10.170;2023-03-01T10:00:48;14.50;99.30
56336;DHT22;42241;53.510;10.170;2023-03-01T10:08:25;16.80;90.10
56336;DHT22;42241;53.510;10.170;2023-03-01T10:10:56;16.90;82.10
56336;DHT22;42241;53.510;10.170;2023-03-01T10:13:29;16.80;81.30
56336;DHT22;42241;53.510;10.170;2023-03-01T10:15:59;17.60;77.20
56336;DHT22;42241;53.510;10.170;2023-03-01T10:18:32;18.10;75.20
56336;DHT22;42241;53.510;10.170;2023-03-01T10:23:24;19.00;67.30
56336;DHT22;42241;53.510;10.170;2023-03-01T10:30:50;18.60;60.30
56336;DHT22;42241;53.510;10.170;2023-03-01T10:33:23;18.80;62.80
56336;DHT22;42241;53.510;10.170;2023-03-01T10:35:49;19.20;62.40
56336;DHT22;42241;53.510;10.170;2023-03-01T10:38:18;19.60;60.60
56336;DHT22;42241;53.510;10.170;2023-03-01T10:40:56;19.60;59.30
56336;DHT22;42241;53.510;10.170;2023-03-01T10:43:44;20.40;58.00
56336;DHT22;42241;53.510;10.170;2023-03-01T10:51:31;19.60;58.50
56336;DHT22;42241;53.510;10.170;2023-03-01T10:53:57;19.10;59.30
56336;DHT22;42241;53.510;10.170;2023-03-01T10:56:22;18.70;60.30
56336;DHT22;42241;53.510;10.170;2023-03-01T10:59:04;19.00;60.50
56336;DHT22;42241;53.510;10.170;2023-03-01T11:01:33;18.90;60.70
56336;DHT22;42241;53.510;10.170;2023-03-01T11:06:31;17.80;62.30
56336;DHT22;42241;53.510;10.170;2023-03-01T11:08:57;17.60;62.30
56336;DHT22;42241;53.510;10.170;2023-03-01T11:11:38;17.80;64.10
56336;DHT22;42241;53.510;10.170;2023-03-01T11:14:07;19.60;62.30
56336;DHT22;42241;53.510;10.170;2023-03-01T11:16:39;20.00;57.20
56336;DHT22;42241;53.510;10.170;2023-03-01T11:21:39;22.00;55.80
56336;DHT22;42241;53.510;10.170;2023-03-01T11:24:09;22.70;51.70
56336;DHT22;42241;53.510;10.170;2023-03-01T11:26:41;24.00;51.30
56336;DHT22;42241;53.510;10.170;2023-03-01T11:29:26;26.40;47.10
56336;DHT22;42241;53.510;10.170;2023-03-01T11:31:55;27.00;40.90
56336;DHT22;42241;53.510;10.170;2023-03-01T11:34:23;26.60;41.90
56336;DHT22;42241;53.510;10.170;2023-03-01T11:36:58;26.80;41.70
56336;DHT22;42241;53.510;10.170;2023-03-01T11:42:05;27.00;37.50
56336;DHT22;42241;53.510;10.170;2023-03-01T11:44:35;26.10;39.50
56336;DHT22;42241;53.510;10.170;2023-03-01T11:49:57;26.10;40.00
56336;DHT22;42241;53.510;10.170;2023-03-01T12:00:19;28.20;35.90
56336;DHT22;42241;53.510;10.170;2023-03-01T12:07:56;26.60;36.10
56336;DHT22;42241;53.510;10.170;2023-03-01T12:10:29;27.00;36.80
56336;DHT22;42241;53.510;10.170;2023-03-01T12:15:27;27.70;35.80
56336;DHT22;42241;53.510;10.170;2023-03-01T12:20:30;27.70;35.40
56336;DHT22;42241;53.510;10.170;2023-03-01T12:25:27;26.80;35.30
56336;DHT22;42241;53.510;10.170;2023-03-01T12:30:25;25.20;37.50
56336;DHT22;42241;53.510;10.170;2023-03-01T12:33:01;26.70;37.90
56336;DHT22;42241;53.510;10.170;2023-03-01T12:38:08;23.40;41.30
56336;DHT22;42241;53.510;10.170;2023-03-01T12:43:20;21.70;42.70
56336;DHT22;42241;53.510;10.170;2023-03-01T12:48:38;20.00;44.30
56336;DHT22;42241;53.510;10.170;2023-03-01T12:51:06;20.10;47.60
56336;DHT22;42241;53.510;10.170;2023-03-01T12:53:39;18.50;46.80
56336;DHT22;42241;53.510;10.170;2023-03-01T12:56:10;17.50;48.90
56336;DHT22;42241;53.510;10.170;2023-03-01T13:06:32;20.50;47.10
56336;DHT22;42241;53.510;10.170;2023-03-01T13:09:18;20.80;46.40
56336;DHT22;42241;53.510;10.170;2023-03-01T13:11:47;20.10;46.80
56336;DHT22;42241;53.510;10.170;2023-03-01T13:16:57;19.20;47.10
56336;DHT22;42241;53.510;10.170;2023-03-01T13:19:26;18.90;50.90
56336;DHT22;42241;53.510;10.170;2023-03-01T13:21:54;17.60;50.10
56336;DHT22;42241;53.510;10.170;2023-03-01T13:24:39;17.10;55.00
56336;DHT22;42241;53.510;10.170;2023-03-01T13:27:09;17.30;53.60
56336;DHT22;42241;53.510;10.170;2023-03-01T13:34:45;17.40;53.40
56336;DHT22;42241;53.510;10.170;2023-03-01T13:37:18;18.00;53.00
56336;DHT22;42241;53.510;10.170;2023-03-01T13:39:47;18.00;50.40
56336;DHT22;42241;53.510;10.170;2023-03-01T13:42:35;17.70;51.80
56336;DHT22;42241;53.510;10.170;2023-03-01T13:45:03;17.40;55.90
56336;DHT22;42241;53.510;10.170;2023-03-01T13:47:32;17.30;55.70
56336;DHT22;42241;53.510;10.170;2023-03-01T13:50:00;18.80;51.70
56336;DHT22;42241;53.510;10.170;2023-03-01T13:52:40;20.00;48.60
56336;DHT22;42241;53.510;10.170;2023-03-01T13:55:24;19.90;46.40
56336;DHT22;42241;53.510;10.170;2023-03-01T13:57:53;19.10;48.30
56336;DHT22;42241;53.510;10.170;2023-03-01T14:03:03;17.20;52.70
56336;DHT22;42241;53.510;10.170;2023-03-01T14:05:30;17.40;51.10
56336;DHT22;42241;53.510;10.170;2023-03-01T14:07:56;17.40;52.30
56336;DHT22;42241;53.510;10.170;2023-03-01T14:10:21;17.90;52.90
56336;DHT22;42241;53.510;10.170;2023-03-01T14:15:17;18.80;50.30
56336;DHT22;42241;53.510;10.170;2023-03-01T14:17:46;19.10;49.20
56336;DHT22;42241;53.510;10.170;2023-03-01T14:20:18;17.90;50.20
56336;DHT22;42241;53.510;10.170;2023-03-01T14:22:44;17.60;50.60
56336;DHT22;42241;53.510;10.170;2023-03-01T14:27:42;16.80;53.60
56336;DHT22;42241;53.510;10.170;2023-03-01T14:30:12;15.30;58.30
56336;DHT22;42241;53.510;10.170;2023-03-01T14:32:39;14.30;61.30
56336;DHT22;42241;53.510;10.170;2023-03-01T14:35:21;13.50;66.20
56336;DHT22;42241;53.510;10.170;2023-03-01T14:37:49;12.70;68.90
56336;DHT22;42241;53.510;10.170;2023-03-01T14:40:28;12.20;74.60
56336;DHT22;42241;53.510;10.170;2023-03-01T14:42:56;11.80;76.60
56336;DHT22;42241;53.510;10.170;2023-03-01T14:45:22;11.70;82.00
56336;DHT22;42241;53.510;10.170;2023-03-01T14:47:49;11.60;84.80
56336;DHT22;42241;53.510;10.170;2023-03-01T14:50:23;11.50;85.90
56336;DHT22;42241;53.510;10.170;2023-03-01T14:52:50;11.40;87.60
56336;DHT22;42241;53.510;10.170;2023-03-01T14:55:18;11.70;89.60
56336;DHT22;42241;53.510;10.170;2023-03-01T14:57:47;11.60;88.60
56336;DHT22;42241;53.510;10.170;2023-03-01T15:00:34;11.90;89.90
56336;DHT22;42241;53.510;10.170;2023-03-01T15:03:13;11.70;90.60
56336;DHT22;42241;53.510;10.170;2023-03-01T15:05:40;11.60;90.10
56336;DHT22;42241;53.510;10.170;2023-03-01T15:08:06;11.30;90.80
56336;DHT22;42241;53.510;10.170;2023-03-01T15:10:37;11.10;92.30
56336;DHT22;42241;53.510;10.170;2023-03-01T15:13:11;10.80;92.30
56336;DHT22;42241;53.510;10.170;2023-03-01T15:15:38;10.80;93.90
56336;DHT22;42241;53.510;10.170;2023-03-01T15:18:26;10.80;94.30
56336;DHT22;42241;53.510;10.170;2023-03-01T15:20:53;10.60;95.40
56336;DHT22;42241;53.510;10.170;2023-03-01T15:25:47;10.30;96.30
56336;DHT22;42241;53.510;10.170;2023-03-01T15:28:21;10.20;97.30
56336;DHT22;42241;53.510;10.170;2023-03-01T15:30:52;10.00;97.10
56336;DHT22;42241;53.510;10.170;2023-03-01T15:35:52;9.80;99.90
56336;DHT22;42241;53.510;10.170;2023-03-01T15:40:51;9.90;99.90
56336;DHT22;42241;53.510;10.170;2023-03-01T15:46:11;10.00;99.90
56336;DHT22;42241;53.510;10.170;2023-03-01T15:48:38;9.90;99.90
56336;DHT22;42241;53.510;10.170;2023-03-01T15:51:03;9.90;99.90
56336;DHT22;42241;53.510;10.170;2023-03-01T15:53:29;10.10;99.90
56336;DHT22;42241;53.510;10.170;2023-03-01T15:55:54;10.20;99.90
56336;DHT22;42241;53.510;10.170;2023-03-01T15:58:21;10.10;99.90
56336;DHT22;42241;53.510;10.170;2023-03-01T16:00:52;10.00;99.90
56336;DHT22;42241;53.510;10.170;2023-03-01T16:03:21;9.70;99.90
56336;DHT22;42241;53.510;10.170;2023-03-01T16:05:48;9.50;99.90
56336;DHT22;42241;53.510;10.170;2023-03-01T16:08:14;9.50;99.90
56336;DHT22;42241;53.510;10.170;2023-03-01T16:10:40;9.40;99.90
56336;DHT22;42241;53.510;10.170;2023-03-01T16:13:05;9.20;99.90
56336;DHT22;42241;53.510;10.170;2023-03-01T16:15:33;9.20;99.90
56336;DHT22;42241;53.510;10.170;2023-03-01T16:18:00;9.10;99.90
56336;DHT22;42241;53.510;10.170;2023-03-01T16:20:26;9.00;99.90
56336;DHT22;42241;53.510;10.170;2023-03-01T16:22:51;9.00;99.90
56336;DHT22;42241;53.510;10.170;2023-03-01T16:25:20;8.90;99.90
56336;DHT22;42241;53.510;10.170;2023-03-01T16:27:46;8.80;99.90
56336;DHT22;42241;53.510;10.170;2023-03-01T16:30:13;8.80;99.90
56336;DHT22;42241;53.510;10.170;2023-03-01T16:32:42;8.80;99.90
56336;DHT22;42241;53.510;10.170;2023-03-01T16:35:09;8.70;99.90
56336;DHT22;42241;53.510;10.170;2023-03-01T16:37:37;8.50;99.90
56336;DHT22;42241;53.510;10.170;2023-03-01T16:40:06;8.40;99.90
56336;DHT22;42241;53.510;10.170;2023-03-01T16:42:35;8.30;99.90
56336;DHT22;42241;53.510;10.170;2023-03-01T16:45:01;8.20;99.90
56336;DHT22;42241;53.510;10.170;2023-03-01T16:47:27;8.10;99.90
56336;DHT22;42241;53.510;10.170;2023-03-01T16:49:53;7.90;99.90
56336;DHT22;42241;53.510;10.170;2023-03-01T16:52:21;7.80;99.90
56336;DHT22;42241;53.510;10.170;2023-03-01T16:54:46;7.80;99.90
56336;DHT22;42241;53.510;10.170;2023-03-01T16:57:12;7.70;99.90
56336;DHT22;42241;53.510;10.170;2023-03-01T16:59:41;7.60;99.90
56336;DHT22;42241;53.510;10.170;2023-03-01T17:02:08;7.50;99.90
56336;DHT22;42241;53.510;10.170;2023-03-01T17:04:36;7.40;99.90
56336;DHT22;42241;53.510;10.170;2023-03-01T17:07:04;7.30;99.90
56336;DHT22;42241;53.510;10.170;2023-03-01T17:09:32;7.30;99.90
56336;DHT22;42241;53.510;10.170;2023-03-01T17:11:59;7.20;99.90
56336;DHT22;42241;53.510;10.170;2023-03-01T17:14:27;7.20;99.90
56336;DHT22;42241;53.510;10.170;2023-03-01T17:16:53;7.00;99.90